Time;durP1;ratioP1;P1;durP2;ratioP2;P2;SDS_P1;SDS_P2;PMS_P1;PMS_P2;Temp;Humidity;BMP_temperature;BMP_pressure;BME280_temperature;BME280_humidity;BME280_pressure;Samples;Min_cycle;Max_cycle;Signal;HPM_P1;HPM_P2
2023/03/07 00:01:03;;;;;;;20.50;14.17;;;;;;;2.89;100.00;98422.88;5103896;28;20478;-71
2023/03/07 00:03:29;;;;;;;23.83;12.60;;;;;;;2.88;100.00;98429.94;5121391;28;20415;-74
2023/03/07 00:06:03;;;;;;;16.93;10.50;;;;;;;2.86;100.00;98423.97;5102026;28;20546;-73
2023/03/07 00:08:31;;;;;;;24.30;13.67;;;;;;;2.92;100.00;98425.25;5112028;28;20995;-72
2023/03/07 00:11:02;;;;;;;20.60;12.43;;;;;;;2.95;100.00;98435.53;5120824;28;20503;-71
2023/03/07 00:13:30;;;;;;;22.93;12.47;;;;;;;3.01;100.00;98427.06;5120079;28;20526;-72
2023/03/07 00:16:00;;;;;;;19.33;12.60;;;;;;;2.82;100.00;98428.69;5120062;28;20487;-72
2023/03/07 00:18:27;;;;;;;24.37;13.20;;;;;;;2.92;100.00;98412.06;5121548;28;20434;-73
2023/03/07 00:20:58;;;;;;;20.73;12.70;;;;;;;2.94;100.00;98415.41;5106557;28;20499;-73
2023/03/07 00:23:24;;;;;;;21.63;12.17;;;;;;;2.91;100.00;98410.38;5113793;28;20433;-72
2023/03/07 00:25:57;;;;;;;20.30;12.50;;;;;;;2.82;100.00;98404.13;5124161;28;20469;-73
2023/03/07 00:28:25;;;;;;;18.63;9.30;;;;;;;2.89;100.00;98404.41;5083473;28;20486;-71
2023/03/07 00:30:52;;;;;;;20.63;11.23;;;;;;;3.01;100.00;98396.22;5116778;28;20485;-70
2023/03/07 00:33:18;;;;;;;15.50;9.37;;;;;;;2.87;100.00;98401.91;5116874;28;20994;-72
2023/03/07 00:35:45;;;;;;;23.37;14.20;;;;;;;3.15;100.00;98386.22;5103865;28;20467;-72
2023/03/07 00:38:11;;;;;;;25.53;11.77;;;;;;;3.23;100.00;98378.44;5107068;28;20435;-69
2023/03/07 00:40:38;;;;;;;22.43;13.17;;;;;;;3.26;100.00;98377.31;5103246;28;20544;-69
2023/03/07 00:43:05;;;;;;;19.10;12.00;;;;;;;3.10;100.00;98384.00;5103684;28;20482;-67
2023/03/07 00:45:33;;;;;;;19.00;12.37;;;;;;;3.15;100.00;98365.09;5109464;28;20527;-69
2023/03/07 00:47:59;;;;;;;20.63;11.63;;;;;;;3.14;100.00;98369.56;5109865;28;20470;-67
2023/03/07 00:50:26;;;;;;;22.47;12.07;;;;;;;3.28;100.00;98375.38;5105187;28;20477;-69
2023/03/07 00:52:52;;;;;;;22.20;12.90;;;;;;;3.20;100.00;98368.16;5122846;28;20454;-68
2023/03/07 00:55:19;;;;;;;14.90;11.00;;;;;;;3.11;100.00;98369.81;5103361;28;20455;-69
2023/03/07 00:57:45;;;;;;;20.63;12.23;;;;;;;3.04;100.00;98354.66;5104169;28;20443;-70
2023/03/07 01:00:13;;;;;;;19.50;12.93;;;;;;;3.11;100.00;98358.44;5101476;28;21084;-70
2023/03/07 01:02:41;;;;;;;18.37;12.50;;;;;;;3.12;100.00;98360.09;5103858;28;20931;-69
2023/03/07 01:05:08;;;;;;;20.77;13.47;;;;;;;2.97;100.00;98338.56;5103530;28;20432;-70
2023/03/07 01:07:35;;;;;;;19.77;12.50;;;;;;;3.06;100.00;98345.66;5103451;28;20454;-69
2023/03/07 01:10:01;;;;;;;20.87;13.57;;;;;;;3.28;100.00;98347.16;5103561;28;20490;-67
2023/03/07 01:12:28;;;;;;;17.63;13.00;;;;;;;3.10;100.00;98343.56;5102640;28;20494;-68
2023/03/07 01:14:54;;;;;;;21.03;13.70;;;;;;;3.09;100.00;98347.16;5103092;28;20494;-69
2023/03/07 01:17:21;;;;;;;19.87;13.63;;;;;;;3.07;100.00;98341.19;5102859;28;20486;-69
2023/03/07 01:19:49;;;;;;;20.07;12.90;;;;;;;3.17;100.00;98329.66;5102909;28;21012;-69
2023/03/07 01:22:16;;;;;;;16.60;11.90;;;;;;;3.07;100.00;98328.81;5102892;28;20471;-69
2023/03/07 01:24:42;;;;;;;14.87;10.33;;;;;;;2.98;100.00;98333.13;5104222;28;20471;-69
2023/03/07 01:27:09;;;;;;;19.07;11.23;;;;;;;3.13;100.00;98327.44;5102990;28;20529;-69
2023/03/07 01:29:36;;;;;;;20.43;13.83;;;;;;;3.16;100.00;98329.78;5102434;28;20451;-67
2023/03/07 01:32:02;;;;;;;15.90;10.73;;;;;;;2.97;100.00;98334.13;5102599;28;20479;-68
2023/03/07 01:34:29;;;;;;;17.40;11.87;;;;;;;2.94;100.00;98323.84;5103576;28;20459;-68
2023/03/07 01:36:57;;;;;;;18.43;11.70;;;;;;;3.05;100.00;98320.22;5103071;28;20499;-66
2023/03/07 01:39:24;;;;;;;18.80;12.90;;;;;;;3.17;100.00;98324.38;5102965;28;20532;-68
2023/03/07 01:41:51;;;;;;;20.07;14.10;;;;;;;3.15;100.00;98320.22;5099561;28;20522;-68
2023/03/07 01:44:19;;;;;;;17.30;11.80;;;;;;;3.09;100.00;98318.97;5099649;28;20458;-68
2023/03/07 01:46:51;;;;;;;17.57;10.33;;;;;;;2.93;100.00;98316.88;5102527;28;20475;-68
2023/03/07 01:49:22;;;;;;;17.80;12.83;;;;;;;3.18;100.00;98302.28;5102839;28;20439;-67
2023/03/07 01:51:51;;;;;;;21.53;12.63;;;;;;;3.04;100.00;98315.94;5107588;28;20726;-68
2023/03/07 01:54:20;;;;;;;17.70;12.80;;;;;;;2.96;100.00;98318.41;5113510;28;20471;-66
2023/03/07 01:56:47;;;;;;;20.50;11.40;;;;;;;2.94;100.00;98308.00;5102474;28;21022;-70
2023/03/07 01:59:17;;;;;;;17.43;13.27;;;;;;;3.10;100.00;98311.88;5111373;28;20474;-70
2023/03/07 02:01:43;;;;;;;19.10;12.47;;;;;;;3.08;100.00;98295.34;5110367;28;20459;-70
2023/03/07 02:04:15;;;;;;;19.77;13.73;;;;;;;3.23;100.00;98316.84;5094104;28;20478;-70
2023/03/07 02:06:42;;;;;;;19.73;12.23;;;;;;;3.08;100.00;98308.56;5118805;28;20509;-69
2023/03/07 02:09:12;;;;;;;20.13;13.53;;;;;;;3.19;100.00;98314.50;5112136;28;20507;-70
2023/03/07 02:11:42;;;;;;;18.20;12.67;;;;;;;3.04;100.00;98307.16;5107307;28;20505;-69
2023/03/07 02:14:08;;;;;;;15.87;11.40;;;;;;;3.08;100.00;98298.00;5122934;28;20468;-70
2023/03/07 02:16:36;;;;;;;18.80;11.70;;;;;;;3.13;100.00;98301.03;5108197;28;20503;-70
2023/03/07 02:19:02;;;;;;;18.40;11.67;;;;;;;3.08;100.00;98298.81;5105350;28;20442;-67
2023/03/07 02:21:34;;;;;;;19.50;13.57;;;;;;;3.23;100.00;98293.94;5121422;28;20485;-70
2023/03/07 02:24:07;;;;;;;16.20;10.83;;;;;;;3.15;100.00;98280.59;5109129;28;20435;-71
2023/03/07 02:26:42;;;;;;;19.50;12.37;;;;;;;3.10;100.00;98282.84;5110491;28;20508;-67
2023/03/07 02:29:09;;;;;;;15.47;11.67;;;;;;;3.04;100.00;98276.31;5115369;28;20462;-70
2023/03/07 02:31:36;;;;;;;17.83;12.37;;;;;;;3.26;100.00;98272.50;5101855;28;20498;-67
2023/03/07 02:34:02;;;;;;;22.23;14.00;;;;;;;3.43;100.00;98278.03;5116357;28;20771;-68
2023/03/07 02:36:32;;;;;;;15.80;10.53;;;;;;;3.16;100.00;98277.81;5116476;28;20482;-69
2023/03/07 02:39:00;;;;;;;20.60;13.27;;;;;;;3.37;100.00;98274.16;5102145;28;20458;-69
2023/03/07 02:41:30;;;;;;;18.00;12.30;;;;;;;3.26;100.00;98269.03;5113346;28;20579;-68
2023/03/07 02:43:59;;;;;;;23.33;13.93;;;;;;;3.45;100.00;98268.16;5115334;28;20469;-69
2023/03/07 02:46:25;;;;;;;21.43;14.50;;;;;;;3.38;100.00;98262.59;5101383;28;20480;-66
2023/03/07 02:48:52;;;;;;;19.70;13.63;;;;;;;3.42;100.00;98261.38;5120534;28;20958;-69
2023/03/07 02:51:18;;;;;;;23.47;14.40;;;;;;;3.34;100.00;98270.00;5108805;28;20475;-69
2023/03/07 02:53:45;;;;;;;19.07;12.90;;;;;;;3.24;100.00;98255.16;5102437;28;20454;-69
2023/03/07 02:56:12;;;;;;;18.17;13.20;;;;;;;3.46;100.00;98259.25;5119607;28;20469;-69
2023/03/07 02:58:39;;;;;;;19.97;14.27;;;;;;;3.44;100.00;98267.31;5108606;28;20486;-66
2023/03/07 03:01:07;;;;;;;21.83;14.10;;;;;;;3.34;100.00;98267.34;5101806;28;20496;-69
2023/03/07 03:03:33;;;;;;;21.03;15.00;;;;;;;3.41;100.00;98256.22;5110813;28;20440;-68
2023/03/07 03:06:00;;;;;;;21.47;13.90;;;;;;;3.51;100.00;98249.09;5101370;28;20493;-70
2023/03/07 03:08:26;;;;;;;20.90;14.47;;;;;;;3.64;100.00;98251.41;5101395;28;20474;-65
2023/03/07 03:10:54;;;;;;;19.60;14.37;;;;;;;3.52;100.00;98242.81;5111538;28;20492;-69
2023/03/07 03:13:20;;;;;;;20.07;14.60;;;;;;;3.53;100.00;98241.84;5104475;28;20487;-68
2023/03/07 03:15:47;;;;;;;27.10;15.67;;;;;;;3.72;100.00;98239.13;5101107;28;20503;-69
2023/03/07 03:18:16;;;;;;;23.97;15.40;;;;;;;3.66;100.00;98234.41;5101497;28;20467;-69
2023/03/07 03:20:43;;;;;;;20.47;14.60;;;;;;;3.61;100.00;98235.81;5100233;28;20530;-70
2023/03/07 03:23:09;;;;;;;22.80;16.40;;;;;;;3.75;100.00;98235.38;5102042;28;20461;-67
2023/03/07 03:25:36;;;;;;;22.27;14.33;;;;;;;3.46;100.00;98228.38;5102489;28;20467;-68
2023/03/07 03:28:03;;;;;;;24.00;16.87;;;;;;;3.58;100.00;98234.31;5107873;28;20436;-69
2023/03/07 03:30:31;;;;;;;24.73;17.17;;;;;;;3.71;100.00;98229.50;5110197;28;20482;-69
2023/03/07 03:32:58;;;;;;;24.90;15.80;;;;;;;3.67;100.00;98227.31;5121927;28;20450;-69
2023/03/07 03:35:26;;;;;;;24.77;15.73;;;;;;;3.71;100.00;98223.41;5101712;28;20811;-69
2023/03/07 03:37:52;;;;;;;22.67;15.80;;;;;;;3.76;100.00;98221.16;5111925;28;20444;-66
2023/03/07 03:40:19;;;;;;;29.87;17.90;;;;;;;3.84;100.00;98213.31;5120492;28;20524;-70
2023/03/07 03:42:46;;;;;;;24.63;16.93;;;;;;;3.96;100.00;98221.88;5081012;28;20509;-69
2023/03/07 03:45:13;;;;;;;20.90;15.83;;;;;;;3.84;100.00;98215.16;5102240;28;20485;-67
2023/03/07 03:47:40;;;;;;;24.30;16.50;;;;;;;3.94;100.00;98219.38;5116307;28;20443;-70
2023/03/07 03:50:07;;;;;;;21.90;16.00;;;;;;;3.82;100.00;98217.06;5100515;28;20591;-69
2023/03/07 03:52:36;;;;;;;24.97;16.17;;;;;;;4.02;100.00;98216.00;5116759;28;20443;-68
2023/03/07 03:55:03;;;;;;;23.33;16.40;;;;;;;3.79;100.00;98222.69;5117416;28;20463;-69
2023/03/07 03:57:30;;;;;;;25.20;16.87;;;;;;;3.90;100.00;98219.81;5104500;28;20467;-70
2023/03/07 03:59:56;;;;;;;26.17;17.43;;;;;;;3.89;100.00;98215.50;5122612;28;20482;-67
2023/03/07 04:02:23;;;;;;;24.07;14.00;;;;;;;3.79;100.00;98206.81;5117064;28;20475;-69
2023/03/07 04:04:50;;;;;;;27.93;18.40;;;;;;;3.88;100.00;98209.41;5106153;28;20443;-69
2023/03/07 04:07:16;;;;;;;22.77;15.00;;;;;;;3.81;100.00;98204.84;5125001;28;20478;-69
2023/03/07 04:09:44;;;;;;;25.50;16.33;;;;;;;3.76;100.00;98195.53;5109001;28;20530;-70
2023/03/07 04:12:11;;;;;;;26.07;18.30;;;;;;;3.99;100.00;98220.75;5114782;28;20478;-69
2023/03/07 04:14:37;;;;;;;24.10;17.00;;;;;;;3.96;100.00;98211.31;5120786;28;20529;-69
2023/03/07 04:17:04;;;;;;;29.23;17.43;;;;;;;3.86;100.00;98216.66;5103632;28;21158;-69
2023/03/07 04:19:31;;;;;;;26.20;16.73;;;;;;;3.91;100.00;98214.38;5104875;28;21015;-68
2023/03/07 04:21:59;;;;;;;23.20;17.40;;;;;;;3.88;100.00;98219.97;5115137;28;20483;-68
2023/03/07 04:24:25;;;;;;;31.77;18.60;;;;;;;3.87;100.00;98207.75;5106078;28;20440;-67
2023/03/07 04:26:53;;;;;;;26.50;17.83;;;;;;;3.85;100.00;98203.56;5103531;28;20558;-68
2023/03/07 04:29:20;;;;;;;22.60;16.70;;;;;;;4.13;100.00;98215.78;5099537;28;20512;-68
2023/03/07 04:31:46;;;;;;;28.33;18.40;;;;;;;4.00;100.00;98220.59;5103946;28;20475;-69
2023/03/07 04:34:13;;;;;;;27.67;16.63;;;;;;;4.04;100.00;98216.66;5104032;28;20475;-69
2023/03/07 04:36:40;;;;;;;27.53;17.70;;;;;;;4.19;100.00;98213.53;5103505;28;20467;-69
2023/03/07 04:39:06;;;;;;;27.10;17.53;;;;;;;3.99;100.00;98211.00;5121085;28;20478;-69
2023/03/07 04:41:33;;;;;;;27.03;17.90;;;;;;;4.24;100.00;98214.72;5114696;28;20962;-69
2023/03/07 04:44:01;;;;;;;26.33;17.93;;;;;;;4.24;100.00;98235.88;5118055;28;20538;-69
2023/03/07 04:46:28;;;;;;;25.83;17.10;;;;;;;4.04;100.00;98234.34;5104442;28;20499;-70
2023/03/07 04:48:54;;;;;;;16.23;11.87;;;;;;;3.52;100.00;98237.53;5103999;28;20470;-68
2023/03/07 04:51:22;;;;;;;12.00;9.27;;;;;;;3.38;100.00;98238.84;5112502;28;20565;-69
2023/03/07 04:53:49;;;;;;;12.00;8.53;;;;;;;3.25;100.00;98225.13;5090863;28;20441;-68
2023/03/07 04:56:16;;;;;;;10.20;6.27;;;;;;;3.30;100.00;98225.50;5123858;28;20497;-67
2023/03/07 04:58:43;;;;;;;9.10;6.63;;;;;;;3.09;100.00;98226.56;5106899;28;20569;-68
2023/03/07 05:01:11;;;;;;;6.73;4.00;;;;;;;3.00;100.00;98235.31;5102443;28;20501;-70
2023/03/07 05:03:38;;;;;;;7.50;4.90;;;;;;;3.01;100.00;98240.47;5108862;28;20509;-68
2023/03/07 05:06:06;;;;;;;6.50;4.53;;;;;;;3.03;100.00;98231.59;5102618;28;20482;-68
2023/03/07 05:08:33;;;;;;;7.63;3.80;;;;;;;3.20;100.00;98231.66;5103726;28;20439;-68
2023/03/07 05:11:00;;;;;;;6.00;4.53;;;;;;;3.13;100.00;98225.28;5101570;28;20475;-68
2023/03/07 05:13:27;;;;;;;4.97;4.10;;;;;;;3.26;100.00;98226.78;5101508;28;20480;-68
2023/03/07 05:15:55;;;;;;;7.57;4.57;;;;;;;3.30;100.00;98231.66;5103323;28;20494;-69
2023/03/07 05:18:23;;;;;;;7.47;5.13;;;;;;;3.30;100.00;98231.66;5103856;28;20475;-68
2023/03/07 05:20:50;;;;;;;6.33;5.60;;;;;;;3.32;100.00;98219.13;5121058;28;20539;-68
2023/03/07 05:23:17;;;;;;;6.60;5.33;;;;;;;3.24;100.00;98208.44;5105200;28;20643;-69
2023/03/07 05:25:45;;;;;;;6.10;4.50;;;;;;;3.25;100.00;98212.75;5098709;28;21054;-68
2023/03/07 05:28:12;;;;;;;6.10;5.23;;;;;;;3.35;100.00;98210.91;5098200;28;20450;-68
2023/03/07 05:30:39;;;;;;;8.17;5.80;;;;;;;3.33;100.00;98207.59;5101571;28;20486;-66
2023/03/07 05:33:05;;;;;;;5.90;4.67;;;;;;;3.31;100.00;98214.81;5101323;28;20447;-64
2023/03/07 05:35:33;;;;;;;7.77;4.37;;;;;;;3.36;100.00;98224.94;5100122;28;20473;-64
2023/03/07 05:38:00;;;;;;;9.77;7.00;;;;;;;3.44;100.00;98213.63;5094444;28;20453;-63
2023/03/07 05:40:27;;;;;;;6.40;4.60;;;;;;;3.64;100.00;98222.31;5105441;28;20499;-63
2023/03/07 05:42:53;;;;;;;6.33;3.60;;;;;;;3.38;100.00;98215.88;5105628;28;20526;-63
2023/03/07 05:45:20;;;;;;;15.13;4.97;;;;;;;3.36;100.00;98223.13;5101551;28;20452;-64
2023/03/07 05:47:46;;;;;;;5.27;3.97;;;;;;;3.55;100.00;98224.03;5102663;28;20883;-64
2023/03/07 05:50:13;;;;;;;5.30;4.77;;;;;;;3.50;100.00;98219.19;5105048;28;20494;-64
2023/03/07 05:52:41;;;;;;;5.50;3.87;;;;;;;3.39;100.00;98229.94;5103171;28;20458;-63
2023/03/07 05:55:08;;;;;;;10.73;3.90;;;;;;;3.34;100.00;98222.44;5102425;28;20483;-63
2023/03/07 05:57:35;;;;;;;5.73;3.73;;;;;;;3.51;100.00;98223.50;5097815;28;20479;-64
2023/03/07 06:00:04;;;;;;;5.60;4.17;;;;;;;3.46;100.00;98230.19;5095927;28;20460;-65
2023/03/07 06:02:31;;;;;;;6.30;3.70;;;;;;;2.97;100.00;98233.00;5100048;28;20512;-67
2023/03/07 06:04:58;;;;;;;3.90;3.17;;;;;;;2.96;100.00;98223.41;5100744;28;20519;-73
2023/03/07 06:07:25;;;;;;;5.10;4.07;;;;;;;2.89;100.00;98231.03;5098955;28;20499;-66
2023/03/07 06:09:53;;;;;;;6.57;3.60;;;;;;;2.99;100.00;98221.31;5100514;28;20477;-65
2023/03/07 06:12:20;;;;;;;5.50;3.93;;;;;;;3.00;100.00;98224.75;5100447;28;20471;-69
2023/03/07 06:14:47;;;;;;;5.23;3.73;;;;;;;2.93;100.00;98221.03;5095484;28;20539;-65
2023/03/07 06:17:13;;;;;;;5.00;3.47;;;;;;;2.94;100.00;98217.44;5086392;28;20507;-66
2023/03/07 06:19:40;;;;;;;7.20;3.37;;;;;;;2.85;100.00;98223.53;5097515;28;20440;-66
2023/03/07 06:22:07;;;;;;;5.33;3.20;;;;;;;2.76;100.00;98220.78;5100023;28;20472;-66
2023/03/07 06:24:34;;;;;;;3.63;2.37;;;;;;;2.72;100.00;98214.13;5102407;28;20490;-64
2023/03/07 06:27:02;;;;;;;5.03;3.00;;;;;;;2.74;100.00;98211.34;5100673;28;20479;-65
2023/03/07 06:29:28;;;;;;;9.10;3.30;;;;;;;2.77;100.00;98208.44;5100826;28;20546;-66
2023/03/07 06:31:55;;;;;;;9.60;3.40;;;;;;;2.84;100.00;98204.25;5101302;28;20510;-66
2023/03/07 06:34:22;;;;;;;4.77;3.30;;;;;;;2.70;100.00;98205.50;5111042;28;20461;-66
2023/03/07 06:36:48;;;;;;;9.80;3.27;;;;;;;2.76;100.00;98210.25;5120717;28;21075;-65
2023/03/07 06:39:19;;;;;;;6.83;4.00;;;;;;;2.80;100.00;98203.69;5101205;28;20435;-65
2023/03/07 06:41:46;;;;;;;5.47;3.70;;;;;;;2.94;100.00;98209.50;5108242;28;21010;-66
2023/03/07 06:44:15;;;;;;;8.53;3.50;;;;;;;2.81;100.00;98193.97;5121678;28;20464;-64
2023/03/07 06:46:41;;;;;;;8.77;4.00;;;;;;;2.97;100.00;98214.50;5104156;28;20482;-66
2023/03/07 06:49:08;;;;;;;7.80;4.60;;;;;;;3.06;100.00;98205.72;5112864;28;20481;-72
2023/03/07 06:51:35;;;;;;;8.43;5.10;;;;;;;2.89;100.00;98207.28;5120527;28;20469;-72
2023/03/07 06:54:01;;;;;;;10.20;4.77;;;;;;;2.94;100.00;98218.25;5081267;28;20420;-72
2023/03/07 06:56:29;;;;;;;7.93;4.80;;;;;;;3.00;100.00;98209.78;5108628;28;20494;-72
2023/03/07 06:58:55;;;;;;;5.77;4.10;;;;;;;2.81;100.00;98208.00;5112291;28;20489;-71
2023/03/07 07:01:23;;;;;;;5.90;4.50;;;;;;;2.97;100.00;98214.50;5101609;28;20486;-72
2023/03/07 07:03:50;;;;;;;7.80;4.63;;;;;;;2.89;100.00;98215.22;5121217;28;20426;-72
2023/03/07 07:06:17;;;;;;;8.20;5.17;;;;;;;2.87;100.00;98222.44;5106677;28;20463;-66
2023/03/07 07:08:43;;;;;;;6.67;4.77;;;;;;;3.01;100.00;98215.88;5104346;28;20446;-67
2023/03/07 07:11:10;;;;;;;11.47;5.10;;;;;;;2.77;100.00;98211.06;5119314;28;20526;-66
2023/03/07 07:13:37;;;;;;;6.50;4.97;;;;;;;2.91;100.00;98210.63;5106113;28;20889;-67
2023/03/07 07:16:05;;;;;;;6.50;4.50;;;;;;;2.76;100.00;98210.25;5105907;28;20504;-67
2023/03/07 07:18:33;;;;;;;8.40;4.33;;;;;;;2.78;100.00;98218.03;5120760;28;20512;-67
2023/03/07 07:21:00;;;;;;;7.47;4.57;;;;;;;2.95;100.00;98219.94;5103399;28;20513;-67
2023/03/07 07:23:27;;;;;;;6.43;3.73;;;;;;;2.98;100.00;98214.34;5106547;28;20443;-67
2023/03/07 07:25:53;;;;;;;5.13;3.83;;;;;;;2.97;100.00;98220.63;5120031;28;20498;-67
2023/03/07 07:28:20;;;;;;;7.43;4.50;;;;;;;3.09;100.00;98212.50;5099718;28;20462;-67
2023/03/07 07:30:47;;;;;;;3.77;3.37;;;;;;;2.71;100.00;98214.25;5109726;28;20482;-67
2023/03/07 07:33:14;;;;;;;6.67;3.60;;;;;;;2.95;100.00;98219.06;5116344;28;20486;-67
2023/03/07 07:35:43;;;;;;;6.97;3.00;;;;;;;2.94;100.00;98212.97;5100541;28;20470;-67
2023/03/07 07:38:09;;;;;;;4.93;2.80;;;;;;;2.87;100.00;98217.16;5119100;28;20455;-67
2023/03/07 07:40:36;;;;;;;3.67;2.57;;;;;;;2.81;100.00;98223.00;5111869;28;20501;-67
2023/03/07 07:43:03;;;;;;;5.33;3.20;;;;;;;2.76;100.00;98215.53;5101053;28;20487;-68
2023/03/07 07:45:29;;;;;;;3.10;2.80;;;;;;;2.75;100.00;98228.84;5117206;28;20458;-66
2023/03/07 07:47:56;;;;;;;7.27;3.87;;;;;;;2.73;100.00;98241.34;5109524;28;20465;-66
2023/03/07 07:50:23;;;;;;;4.57;3.20;;;;;;;2.92;100.00;98236.03;5100263;28;20482;-66
2023/03/07 07:52:52;;;;;;;6.30;3.23;;;;;;;2.77;100.00;98253.28;5120774;28;20471;-67
2023/03/07 07:55:19;;;;;;;5.47;4.33;;;;;;;2.87;100.00;98251.47;5109914;28;20475;-67
2023/03/07 07:57:46;;;;;;;4.43;3.37;;;;;;;2.91;100.00;98252.84;5104241;28;20463;-67
2023/03/07 08:00:19;;;;;;;7.70;4.57;;;;;;;2.80;100.00;98258.28;5119383;28;20449;-67
2023/03/07 08:02:48;;;;;;;4.50;3.00;;;;;;;2.74;100.00;98249.13;5105757;28;20529;-67
2023/03/07 08:05:15;;;;;;;4.30;3.17;;;;;;;2.56;100.00;98245.53;5103334;28;20527;-67
2023/03/07 08:07:42;;;;;;;3.47;2.83;;;;;;;2.62;100.00;98252.88;5121649;28;20457;-67
2023/03/07 08:10:14;;;;;;;4.37;2.90;;;;;;;2.60;100.00;98255.66;5107887;28;20579;-67
2023/03/07 08:12:41;;;;;;;3.60;2.77;;;;;;;2.46;100.00;98242.88;5101805;28;20463;-67
2023/03/07 08:15:08;;;;;;;2.73;2.30;;;;;;;2.35;100.00;98241.22;5119467;28;20458;-67
2023/03/07 08:17:35;;;;;;;5.10;2.43;;;;;;;2.44;100.00;98240.38;5109616;28;20471;-66
2023/03/07 08:20:07;;;;;;;3.20;2.60;;;;;;;2.60;100.00;98244.25;5100669;28;20435;-66
2023/03/07 08:22:33;;;;;;;4.23;2.63;;;;;;;2.72;100.00;98239.69;5119056;28;20501;-66
2023/03/07 08:25:00;;;;;;;3.17;2.87;;;;;;;2.63;100.00;98244.81;5111165;28;20460;-67
2023/03/07 08:27:28;;;;;;;3.37;2.43;;;;;;;2.51;100.00;98245.09;5102177;28;20506;-67
2023/03/07 08:29:55;;;;;;;2.97;2.40;;;;;;;2.70;100.00;98234.53;5119621;28;20534;-67
2023/03/07 08:32:22;;;;;;;6.27;2.77;;;;;;;2.49;100.00;98237.31;5108266;28;20501;-67
2023/03/07 08:34:49;;;;;;;4.17;2.93;;;;;;;2.49;100.00;98237.31;5100330;28;20471;-67
2023/03/07 08:37:15;;;;;;;3.33;2.40;;;;;;;2.45;100.00;98241.22;5117954;28;20505;-67
2023/03/07 08:39:42;;;;;;;2.77;2.20;;;;;;;2.57;100.00;98245.38;5115448;28;20470;-67
2023/03/07 08:42:09;;;;;;;2.93;2.10;;;;;;;2.60;100.00;98237.19;5103331;28;20486;-67
2023/03/07 08:44:37;;;;;;;5.83;2.53;;;;;;;2.86;100.00;98244.50;5119258;28;20561;-68
2023/03/07 08:47:03;;;;;;;3.53;2.40;;;;;;;2.94;100.00;98241.19;5113011;28;20491;-67
2023/03/07 08:49:30;;;;;;;6.10;2.13;;;;;;;2.95;100.00;98248.97;5105463;28;20453;-67
2023/03/07 08:51:57;;;;;;;2.53;2.07;;;;;;;2.91;100.00;98247.56;5103563;28;20483;-67
2023/03/07 08:54:23;;;;;;;3.90;2.67;;;;;;;2.95;100.00;98248.97;5117104;28;20435;-67
2023/03/07 08:56:50;;;;;;;2.43;1.63;;;;;;;2.68;100.00;98256.78;5116181;28;20513;-67
2023/03/07 08:59:17;;;;;;;1.80;1.50;;;;;;;2.83;100.00;98245.66;5102889;28;20976;-67
2023/03/07 09:01:45;;;;;;;3.10;1.80;;;;;;;2.93;100.00;98247.44;5118585;28;20485;-67
2023/03/07 09:04:11;;;;;;;3.43;1.93;;;;;;;2.77;100.00;98237.44;5116767;28;20471;-67
2023/03/07 09:06:38;;;;;;;1.90;1.70;;;;;;;2.91;100.00;98244.94;5102580;28;20478;-66
2023/03/07 09:09:05;;;;;;;2.20;1.60;;;;;;;2.92;100.00;98243.97;5119534;28;20799;-67
2023/03/07 09:11:31;;;;;;;1.90;1.60;;;;;;;2.80;100.00;98240.63;5117071;28;20570;-67
2023/03/07 09:13:58;;;;;;;2.10;1.67;;;;;;;3.03;100.00;98244.78;5103227;28;20474;-67
2023/03/07 09:16:25;;;;;;;2.67;2.03;;;;;;;3.09;100.00;98255.59;5120920;28;20490;-65
2023/03/07 09:18:53;;;;;;;2.43;2.23;;;;;;;3.24;100.00;98241.94;5109907;28;20472;-67
2023/03/07 09:21:20;;;;;;;2.47;2.10;;;;;;;3.33;100.00;98244.56;5104188;28;20991;-68
2023/03/07 09:23:46;;;;;;;4.43;1.70;;;;;;;3.08;100.00;98255.75;5123603;28;20436;-67
2023/03/07 09:26:13;;;;;;;2.33;1.83;;;;;;;3.03;100.00;98255.34;5105391;28;20939;-67
2023/03/07 09:28:40;;;;;;;2.57;2.20;;;;;;;3.00;100.00;98251.16;5114208;28;20445;-67
2023/03/07 09:31:07;;;;;;;2.20;2.00;;;;;;;2.96;100.00;98255.06;5123126;28;20790;-66
2023/03/07 09:33:34;;;;;;;2.53;1.67;;;;;;;3.09;100.00;98257.41;5102974;28;20474;-67
2023/03/07 09:36:05;;;;;;;6.03;1.83;;;;;;;3.25;100.00;98257.66;5110325;28;21277;-67
2023/03/07 09:38:31;;;;;;;3.30;2.63;;;;;;;3.17;100.00;98258.34;5123835;28;20499;-67
2023/03/07 09:41:05;;;;;;;2.30;2.10;;;;;;;3.34;100.00;98264.72;5101566;28;20505;-67
2023/03/07 09:43:40;;;;;;;2.13;1.80;;;;;;;3.28;100.00;98260.00;5113823;28;20550;-65
2023/03/07 09:46:12;;;;;;;1.60;1.50;;;;;;;3.03;100.00;98260.63;5117665;28;20486;-67
2023/03/07 09:49:00;;;;;;;2.60;2.07;;;;;;;3.07;100.00;98260.19;5102766;28;20443;-67
2023/03/07 09:51:36;;;;;;;1.97;1.77;;;;;;;2.63;100.00;98258.00;5116843;28;20500;-67
2023/03/07 09:54:06;;;;;;;2.10;1.77;;;;;;;2.62;100.00;98259.00;5111152;28;20451;-66
2023/03/07 09:56:38;;;;;;;2.60;2.37;;;;;;;2.33;100.00;98260.78;5101755;28;20475;-66
2023/03/07 09:59:12;;;;;;;1.93;1.83;;;;;;;2.38;100.00;98258.56;5122056;28;20453;-67
2023/03/07 10:01:39;;;;;;;2.43;2.20;;;;;;;2.53;100.00;98264.25;5105258;28;20487;-67
2023/03/07 10:04:07;;;;;;;1.80;1.60;;;;;;;2.64;100.00;98266.78;5110312;28;20474;-67
2023/03/07 10:06:38;;;;;;;2.67;2.23;;;;;;;2.66;100.00;98267.47;5122172;28;20499;-68
2023/03/07 10:09:06;;;;;;;1.97;1.77;;;;;;;2.53;100.00;98264.25;5081806;28;20439;-67
2023/03/07 10:11:49;;;;;;;2.63;2.00;;;;;;;2.41;100.00;98274.97;5103000;28;20473;-65
2023/03/07 10:14:23;;;;;;;2.60;2.40;;;;;;;2.59;100.00;98267.19;5119164;28;20458;-67
2023/03/07 10:16:55;;;;;;;2.77;1.97;;;;;;;2.41;100.00;98268.81;5100633;28;20565;-67
2023/03/07 10:19:29;;;;;;;2.33;2.10;;;;;;;2.63;100.00;98270.38;5115042;28;20442;-66
2023/03/07 10:22:03;;;;;;;2.13;1.87;;;;;;;2.59;100.00;98264.53;5117679;28;20477;-66
2023/03/07 10:24:38;;;;;;;2.13;1.93;;;;;;;2.75;100.00;98263.97;5101964;28;20442;-66
2023/03/07 10:27:06;;;;;;;2.70;2.50;;;;;;;2.75;100.00;98258.69;5118640;28;20473;-67
2023/03/07 10:29:38;;;;;;;2.20;2.00;;;;;;;2.76;100.00;98263.00;5113826;28;20475;-66
2023/03/07 10:32:21;;;;;;;2.03;1.83;;;;;;;2.62;100.00;98266.91;5100283;28;20474;-66
2023/03/07 10:34:51;;;;;;;2.57;1.90;;;;;;;2.74;100.00;98266.75;5081512;28;20474;-66
2023/03/07 10:37:21;;;;;;;1.83;1.73;;;;;;;2.49;100.00;98273.44;5105942;28;20482;-67
2023/03/07 10:39:51;;;;;;;1.87;1.67;;;;;;;2.76;100.00;98270.06;5114754;28;20467;-66
2023/03/07 10:42:19;;;;;;;6.50;2.10;;;;;;;3.11;100.00;98266.84;5102096;28;20945;-67
2023/03/07 10:44:47;;;;;;;1.93;1.77;;;;;;;2.89;100.00;98268.00;5121039;28;20477;-67
2023/03/07 10:47:19;;;;;;;2.20;2.00;;;;;;;2.94;100.00;98264.94;5102619;28;20483;-66
2023/03/07 10:49:47;;;;;;;2.43;2.10;;;;;;;3.05;100.00;98274.50;5114868;28;20446;-67
2023/03/07 10:52:26;;;;;;;2.40;2.00;;;;;;;3.19;100.00;98274.06;5120302;28;20531;-66
2023/03/07 10:54:53;;;;;;;2.03;1.53;;;;;;;2.96;100.00;98261.19;5101329;28;20441;-66
2023/03/07 10:57:26;;;;;;;2.50;1.80;;;;;;;3.33;100.00;98267.50;5114937;28;21013;-67
2023/03/07 10:59:53;;;;;;;2.03;1.70;;;;;;;3.37;100.00;98263.59;5116863;28;20494;-67
2023/03/07 11:02:34;;;;;;;2.33;2.13;;;;;;;3.61;100.00;98265.75;5099570;28;20555;-66
2023/03/07 11:05:02;;;;;;;3.00;1.90;;;;;;;3.60;100.00;98264.06;5114839;28;20435;-67
2023/03/07 11:07:33;;;;;;;1.70;1.60;;;;;;;3.67;100.00;98266.97;5120061;28;20489;-67
2023/03/07 11:10:01;;;;;;;2.67;2.10;;;;;;;3.43;100.00;98270.13;5101085;28;20455;-67
2023/03/07 11:12:29;;;;;;;2.60;2.40;;;;;;;3.50;100.00;98266.72;5109095;28;20765;-67
2023/03/07 11:14:57;;;;;;;1.90;1.63;;;;;;;3.26;100.00;98269.88;5120041;28;20465;-66
2023/03/07 11:17:27;;;;;;;2.07;1.50;;;;;;;3.28;100.00;98270.56;5120674;28;20545;-67
2023/03/07 11:19:54;;;;;;;2.20;1.83;;;;;;;3.36;100.00;98269.84;5120577;28;20455;-66
2023/03/07 11:22:24;;;;;;;2.07;1.87;;;;;;;3.60;100.00;98260.59;5119143;28;20517;-67
2023/03/07 11:24:59;;;;;;;2.50;1.80;;;;;;;3.36;100.00;98267.22;5122001;28;20451;-65
2023/03/07 11:27:33;;;;;;;2.30;1.70;;;;;;;3.46;100.00;98267.19;5109901;28;20482;-65
2023/03/07 11:30:17;;;;;;;1.60;1.50;;;;;;;3.34;100.00;98272.63;5103845;28;20844;-67